createdAt,value
2023-05-02T00:01:22.158Z,100.00
2023-05-02T00:03:49.521Z,100.00
2023-05-02T00:06:17.251Z,100.00
2023-05-02T00:08:44.777Z,100.00
2023-05-02T00:11:12.076Z,100.00
2023-05-02T00:13:39.409Z,100.00
2023-05-02T00:16:07.009Z,100.00
2023-05-02T00:18:34.430Z,100.00
2023-05-02T00:21:01.876Z,100.00
2023-05-02T00:23:29.543Z,100.00
2023-05-02T00:25:56.816Z,100.00
2023-05-02T00:28:24.187Z,100.00
2023-05-02T00:30:51.426Z,100.00
2023-05-02T00:33:18.631Z,100.00
2023-05-02T00:35:46.007Z,100.00
2023-05-02T00:38:13.361Z,100.00
2023-05-02T00:40:58.811Z,100.00
2023-05-02T00:43:26.118Z,100.00
2023-05-02T00:45:53.455Z,100.00
2023-05-02T00:48:24.823Z,100.00
2023-05-02T00:50:52.128Z,100.00
2023-05-02T00:53:19.415Z,100.00
2023-05-02T00:55:47.051Z,100.00
2023-05-02T00:58:15.107Z,100.00
2023-05-02T01:00:55.928Z,100.00
2023-05-02T01:04:02.525Z,100.00
2023-05-02T01:06:39.365Z,100.00
2023-05-02T01:09:18.723Z,100.00
2023-05-02T01:12:11.681Z,100.00
2023-05-02T01:14:42.720Z,100.00
2023-05-02T01:17:11.777Z,100.00
2023-05-02T01:19:40.916Z,100.00
2023-05-02T01:22:09.784Z,100.00
2023-05-02T01:24:52.985Z,100.00
2023-05-02T01:27:42.142Z,100.00
2023-05-02T01:30:09.711Z,100.00
2023-05-02T01:32:37.581Z,100.00
2023-05-02T01:35:05.261Z,100.00
2023-05-02T01:37:33.353Z,100.00
2023-05-02T01:40:01.137Z,100.00
2023-05-02T01:42:29.057Z,100.00
2023-05-02T01:44:56.825Z,100.00
2023-05-02T01:47:24.272Z,100.00
2023-05-02T01:49:51.585Z,100.00
2023-05-02T01:52:18.810Z,100.00
2023-05-02T01:54:46.165Z,100.00
2023-05-02T01:57:13.379Z,100.00
2023-05-02T01:59:41.064Z,100.00
2023-05-02T02:02:08.581Z,100.00
2023-05-02T02:04:37.679Z,100.00
2023-05-02T02:07:07.494Z,100.00
2023-05-02T02:09:35.518Z,100.00
2023-05-02T02:12:06.842Z,100.00
2023-05-02T02:14:35.580Z,100.00
2023-05-02T02:17:07.094Z,100.00
2023-05-02T02:19:34.457Z,100.00
2023-05-02T02:22:01.737Z,100.00
2023-05-02T02:24:29.259Z,100.00
2023-05-02T02:26:56.531Z,100.00
2023-05-02T02:29:23.918Z,100.00
2023-05-02T02:31:51.138Z,100.00
2023-05-02T02:34:18.367Z,100.00
2023-05-02T02:36:54.604Z,100.00
2023-05-02T02:39:58.491Z,100.00
2023-05-02T02:42:28.150Z,100.00
2023-05-02T02:45:09.391Z,100.00
2023-05-02T02:47:56.794Z,100.00
2023-05-02T02:50:30.443Z,100.00
2023-05-02T02:53:03.034Z,100.00
2023-05-02T02:55:38.137Z,100.00
2023-05-02T02:58:22.228Z,100.00
2023-05-02T03:00:49.823Z,100.00
2023-05-02T03:03:17.100Z,100.00
2023-05-02T03:05:44.604Z,100.00
2023-05-02T03:08:12.256Z,100.00
2023-05-02T03:10:39.535Z,100.00
2023-05-02T03:13:06.789Z,100.00
2023-05-02T03:15:51.177Z,100.00
2023-05-02T03:18:19.215Z,100.00
2023-05-02T03:20:46.901Z,100.00
2023-05-02T03:23:14.135Z,100.00
2023-05-02T03:25:41.758Z,100.00
2023-05-02T03:28:08.996Z,100.00
2023-05-02T03:30:40.603Z,100.00
2023-05-02T03:33:09.024Z,100.00
2023-05-02T03:35:36.511Z,100.00
2023-05-02T03:38:03.724Z,100.00
2023-05-02T03:40:31.183Z,100.00
2023-05-02T03:42:58.358Z,100.00
2023-05-02T03:45:25.718Z,100.00
2023-05-02T03:47:53.058Z,100.00
2023-05-02T03:50:20.542Z,100.00
2023-05-02T03:52:47.791Z,100.00
2023-05-02T03:55:15.172Z,100.00
2023-05-02T03:57:42.380Z,100.00
2023-05-02T04:00:10.217Z,100.00
2023-05-02T04:02:38.258Z,100.00
2023-05-02T04:05:05.887Z,100.00
2023-05-02T04:07:33.274Z,100.00
2023-05-02T04:10:00.818Z,100.00
2023-05-02T04:12:28.336Z,100.00
2023-05-02T04:14:55.831Z,100.00
2023-05-02T04:17:23.069Z,100.00
2023-05-02T04:19:51.490Z,100.00
2023-05-02T04:22:18.733Z,100.00
2023-05-02T04:24:45.959Z,100.00
2023-05-02T04:27:15.150Z,100.00
2023-05-02T04:29:42.733Z,100.00
2023-05-02T04:32:10.318Z,100.00
2023-05-02T04:34:37.745Z,100.00
2023-05-02T04:37:05.161Z,100.00
2023-05-02T04:39:32.511Z,100.00
2023-05-02T04:41:59.858Z,100.00
2023-05-02T04:44:27.500Z,100.00
2023-05-02T04:46:54.819Z,100.00
2023-05-02T04:49:22.077Z,100.00
2023-05-02T04:51:49.806Z,100.00
2023-05-02T04:54:17.079Z,100.00
2023-05-02T04:56:44.443Z,100.00
2023-05-02T04:59:11.865Z,100.00
2023-05-02T05:01:39.125Z,100.00
2023-05-02T05:04:06.550Z,100.00
2023-05-02T05:06:33.919Z,100.00
2023-05-02T05:09:01.249Z,100.00
2023-05-02T05:11:28.654Z,100.00
2023-05-02T05:13:56.773Z,100.00
2023-05-02T05:16:24.235Z,100.00
2023-05-02T05:18:53.867Z,100.00
2023-05-02T05:21:21.183Z,100.00
2023-05-02T05:23:48.729Z,100.00
2023-05-02T05:26:16.395Z,100.00
2023-05-02T05:28:44.031Z,100.00
2023-05-02T05:31:14.518Z,100.00
2023-05-02T05:33:43.805Z,100.00
2023-05-02T05:36:12.283Z,100.00
2023-05-02T05:38:39.678Z,100.00
2023-05-02T05:41:07.878Z,100.00
2023-05-02T05:43:37.249Z,100.00
2023-05-02T05:46:05.364Z,100.00
2023-05-02T05:48:34.667Z,100.00
2023-05-02T05:51:05.534Z,98.50
2023-05-02T05:53:34.180Z,98.77
2023-05-02T05:56:11.273Z,98.12
2023-05-02T05:58:39.356Z,98.76
2023-05-02T06:01:07.282Z,96.15
2023-05-02T06:03:34.748Z,94.96
2023-05-02T06:06:02.152Z,94.47
2023-05-02T06:08:30.115Z,95.10
2023-05-02T06:10:57.334Z,91.77
2023-05-02T06:13:25.008Z,87.01
2023-05-02T06:15:52.274Z,83.55
2023-05-02T06:18:19.663Z,81.42
2023-05-02T06:20:46.978Z,77.85
2023-05-02T06:23:14.191Z,76.66
2023-05-02T06:25:41.490Z,73.61
2023-05-02T06:28:09.573Z,69.76
2023-05-02T06:30:36.897Z,65.50
2023-05-02T06:33:05.139Z,61.80
2023-05-02T06:35:32.421Z,62.97
2023-05-02T06:37:59.670Z,61.17
2023-05-02T06:40:27.012Z,60.51
2023-05-02T06:42:54.434Z,59.54
2023-05-02T06:45:21.781Z,61.11
2023-05-02T06:47:49.065Z,59.97
2023-05-02T06:50:16.372Z,59.49
2023-05-02T06:52:43.732Z,58.44
2023-05-02T06:55:11.076Z,59.23
2023-05-02T06:57:38.379Z,56.83
2023-05-02T07:00:06.315Z,57.87
2023-05-02T07:02:34.326Z,57.41
2023-05-02T07:05:01.597Z,58.33
2023-05-02T07:07:29.133Z,56.71
2023-05-02T07:09:56.485Z,54.67
2023-05-02T07:12:23.716Z,55.21
2023-05-02T07:14:51.291Z,56.21
2023-05-02T07:17:18.677Z,56.34
2023-05-02T07:19:45.936Z,53.28
2023-05-02T07:22:13.618Z,54.82
2023-05-02T07:24:41.723Z,53.86
2023-05-02T07:27:09.807Z,53.70
2023-05-02T07:29:37.166Z,53.69
2023-05-02T07:32:05.126Z,54.43
2023-05-02T07:34:32.730Z,54.54
2023-05-02T07:36:59.987Z,54.14
2023-05-02T07:39:27.284Z,51.25
2023-05-02T07:41:54.720Z,53.21
2023-05-02T07:44:21.967Z,51.88
2023-05-02T07:46:49.419Z,52.83
2023-05-02T07:49:16.814Z,49.08
2023-05-02T07:51:45.798Z,47.89
2023-05-02T07:54:19.929Z,48.74
2023-05-02T07:56:49.997Z,46.67
2023-05-02T07:59:17.215Z,46.32
2023-05-02T08:01:44.932Z,45.91
2023-05-02T08:04:13.076Z,46.09
2023-05-02T08:06:40.988Z,45.35
2023-05-02T08:09:09.359Z,44.71
2023-05-02T08:11:36.620Z,45.01
2023-05-02T08:14:03.891Z,43.63
2023-05-02T08:16:31.428Z,47.11
2023-05-02T08:18:58.878Z,47.50
2023-05-02T08:21:27.458Z,44.31
2023-05-02T08:24:00.344Z,42.27
2023-05-02T08:26:27.637Z,44.56
2023-05-02T08:28:55.620Z,43.48
2023-05-02T08:31:22.965Z,43.57
2023-05-02T08:33:50.533Z,42.05
2023-05-02T08:36:18.138Z,42.13
2023-05-02T08:38:45.791Z,40.65
2023-05-02T08:41:19.362Z,41.84
2023-05-02T08:43:46.692Z,42.94
2023-05-02T08:46:15.955Z,39.54
2023-05-02T08:48:44.825Z,39.32
2023-05-02T08:51:14.208Z,38.27
2023-05-02T08:53:43.450Z,37.48
2023-05-02T08:56:11.407Z,38.77
2023-05-02T08:58:39.913Z,38.02
2023-05-02T09:01:15.361Z,37.96
2023-05-02T09:03:46.840Z,38.84
2023-05-02T09:06:20.813Z,38.16
2023-05-02T09:08:49.516Z,36.32
2023-05-02T09:11:17.210Z,35.29
2023-05-02T09:13:45.497Z,36.39
2023-05-02T09:16:17.221Z,34.53
2023-05-02T09:19:03.072Z,31.88
2023-05-02T09:21:37.382Z,30.32
2023-05-02T09:24:18.754Z,28.57
2023-05-02T09:27:03.405Z,28.92
2023-05-02T09:29:36.206Z,27.35
2023-05-02T09:32:04.345Z,27.00
2023-05-02T09:34:31.884Z,25.84
2023-05-02T09:36:59.248Z,24.63
2023-05-02T09:39:31.007Z,24.11
2023-05-02T09:41:58.505Z,24.38
2023-05-02T09:44:26.932Z,25.30
2023-05-02T09:46:55.116Z,24.91
2023-05-02T09:49:41.228Z,24.74
2023-05-02T09:52:19.860Z,23.92
2023-05-02T09:54:47.573Z,24.35
2023-05-02T09:57:14.891Z,23.90
2023-05-02T09:59:42.122Z,23.22
2023-05-02T10:02:11.640Z,22.55
2023-05-02T10:04:39.414Z,22.70
2023-05-02T10:07:07.450Z,22.97
2023-05-02T10:09:35.825Z,22.96
2023-05-02T10:12:08.309Z,23.39
2023-05-02T10:14:40.072Z,24.14
2023-05-02T10:17:07.917Z,23.69
2023-05-02T10:19:54.741Z,23.03
2023-05-02T10:22:22.308Z,23.10
2023-05-02T10:24:49.759Z,22.10
2023-05-02T10:27:17.022Z,23.93
2023-05-02T10:29:44.433Z,23.90
2023-05-02T10:32:11.679Z,24.01
2023-05-02T10:34:39.051Z,23.58
2023-05-02T10:37:06.459Z,23.05
2023-05-02T10:39:34.702Z,23.12
2023-05-02T10:42:02.348Z,22.91
2023-05-02T10:44:36.849Z,22.05
2023-05-02T10:47:23.329Z,24.18
2023-05-02T10:49:51.438Z,24.13
2023-05-02T10:52:38.564Z,24.70
2023-05-02T10:55:21.430Z,24.24
2023-05-02T10:57:58.621Z,22.81
2023-05-02T11:00:26.889Z,22.91
2023-05-02T11:02:54.303Z,22.90
2023-05-02T11:05:25.066Z,23.16
2023-05-02T11:08:20.032Z,24.74
2023-05-02T11:10:47.709Z,24.07
2023-05-02T11:13:15.044Z,23.99
2023-05-02T11:15:42.326Z,23.74
2023-05-02T11:18:11.877Z,23.14
2023-05-02T11:20:42.530Z,23.70
2023-05-02T11:23:22.066Z,22.50
2023-05-02T11:25:56.515Z,22.52
2023-05-02T11:28:44.625Z,21.56
2023-05-02T11:31:27.224Z,22.72
2023-05-02T11:33:57.630Z,22.91
2023-05-02T11:36:33.540Z,23.26
2023-05-02T11:39:05.850Z,22.91
2023-05-02T11:41:40.402Z,23.82
2023-05-02T11:44:07.671Z,23.57
2023-05-02T11:46:40.954Z,23.04
2023-05-02T11:49:09.789Z,22.71
2023-05-02T11:51:37.582Z,22.61
2023-05-02T11:54:07.634Z,22.32
2023-05-02T11:56:34.858Z,22.41
2023-05-02T11:59:03.387Z,24.15
2023-05-02T12:01:30.871Z,22.04
2023-05-02T12:04:05.627Z,23.14
2023-05-02T12:06:33.262Z,23.40
2023-05-02T12:09:14.124Z,22.79
2023-05-02T12:11:41.308Z,21.85
2023-05-02T12:14:08.657Z,22.53
2023-05-02T12:16:38.709Z,23.30
2023-05-02T12:19:06.020Z,23.05
2023-05-02T12:21:33.466Z,22.48
2023-05-02T12:24:01.359Z,22.31
2023-05-02T12:26:33.183Z,22.20
2023-05-02T12:29:02.940Z,22.95
2023-05-02T12:31:32.191Z,22.54
2023-05-02T12:34:00.544Z,22.37
2023-05-02T12:36:31.463Z,22.83
2023-05-02T12:39:03.844Z,22.47
2023-05-02T12:41:35.615Z,22.08
2023-05-02T12:44:03.422Z,23.03
2023-05-02T12:46:31.895Z,23.10
2023-05-02T12:49:06.909Z,23.01
2023-05-02T12:51:34.708Z,22.21
2023-05-02T12:54:02.636Z,21.18
2023-05-02T12:56:32.828Z,21.93
2023-05-02T12:59:01.506Z,22.87
2023-05-02T13:01:29.319Z,22.52
2023-05-02T13:03:56.627Z,22.66
2023-05-02T13:06:24.325Z,22.78
2023-05-02T13:08:51.722Z,21.16
2023-05-02T13:11:19.444Z,22.22
2023-05-02T13:13:47.933Z,22.04
2023-05-02T13:16:15.765Z,23.33
2023-05-02T13:18:45.424Z,23.92
2023-05-02T13:21:14.368Z,22.20
2023-05-02T13:23:41.641Z,22.29
2023-05-02T13:26:09.176Z,22.37
2023-05-02T13:28:37.463Z,22.53
2023-05-02T13:31:04.885Z,22.89
2023-05-02T13:33:32.457Z,22.55
2023-05-02T13:36:00.019Z,22.83
2023-05-02T13:38:27.349Z,22.77
2023-05-02T13:40:54.608Z,22.68
2023-05-02T13:43:22.241Z,23.09
2023-05-02T13:45:49.900Z,23.00
2023-05-02T13:48:17.385Z,22.64
2023-05-02T13:50:45.367Z,23.06
2023-05-02T13:53:13.050Z,22.56
2023-05-02T13:55:40.758Z,22.29
2023-05-02T13:58:08.037Z,21.73
2023-05-02T14:00:35.655Z,22.47
2023-05-02T14:03:03.010Z,21.67
2023-05-02T14:05:30.412Z,23.12
2023-05-02T14:07:57.867Z,22.69
2023-05-02T14:10:25.563Z,22.75
2023-05-02T14:12:53.124Z,22.10
2023-05-02T14:15:20.970Z,22.46
2023-05-02T14:17:49.619Z,22.58
2023-05-02T14:20:16.864Z,23.57
2023-05-02T14:22:44.580Z,22.40
2023-05-02T14:25:12.874Z,22.55
2023-05-02T14:27:40.616Z,22.08
2023-05-02T14:30:08.566Z,21.70
2023-05-02T14:32:36.607Z,21.98
2023-05-02T14:35:04.154Z,21.91
2023-05-02T14:37:31.452Z,23.03
2023-05-02T14:39:59.538Z,22.82
2023-05-02T14:42:27.017Z,23.97
2023-05-02T14:44:54.311Z,22.95
2023-05-02T14:47:22.620Z,23.31
2023-05-02T14:49:50.177Z,23.53
2023-05-02T14:52:17.384Z,23.72
2023-05-02T14:54:44.707Z,22.76
2023-05-02T14:57:12.128Z,23.86
2023-05-02T14:59:40.344Z,23.58
2023-05-02T15:02:07.775Z,24.31
2023-05-02T15:04:35.471Z,23.51
2023-05-02T15:07:03.675Z,25.07
2023-05-02T15:09:31.445Z,25.03
2023-05-02T15:11:58.739Z,25.11
2023-05-02T15:14:26.101Z,25.01
2023-05-02T15:16:53.560Z,24.09
2023-05-02T15:19:23.293Z,25.94
2023-05-02T15:21:53.129Z,25.66
2023-05-02T15:24:20.373Z,26.41
2023-05-02T15:26:47.768Z,27.26
2023-05-02T15:29:15.419Z,27.94
2023-05-02T15:31:42.819Z,29.88
2023-05-02T15:34:10.111Z,31.46
2023-05-02T15:36:37.560Z,29.62
2023-05-02T15:39:05.316Z,31.00
2023-05-02T15:41:32.652Z,30.92
2023-05-02T15:44:00.161Z,31.21
2023-05-02T15:46:27.688Z,32.17
2023-05-02T15:48:55.046Z,32.76
2023-05-02T15:51:22.282Z,31.68
2023-05-02T15:53:52.429Z,33.52
2023-05-02T15:56:21.550Z,33.19
2023-05-02T15:58:49.012Z,32.69
2023-05-02T16:01:16.396Z,34.14
2023-05-02T16:03:43.817Z,34.12
2023-05-02T16:06:11.448Z,35.18
2023-05-02T16:08:39.409Z,34.42
2023-05-02T16:11:06.648Z,34.09
2023-05-02T16:13:34.433Z,35.58
2023-05-02T16:16:01.756Z,35.77
2023-05-02T16:18:29.348Z,36.64
2023-05-02T16:20:57.165Z,36.42
2023-05-02T16:23:25.741Z,35.70
2023-05-02T16:26:02.931Z,36.79
2023-05-02T16:28:30.769Z,36.87
2023-05-02T16:30:58.116Z,38.96
2023-05-02T16:33:25.381Z,37.79
2023-05-02T16:36:02.644Z,39.09
2023-05-02T16:38:30.157Z,38.98
2023-05-02T16:40:57.569Z,39.12
2023-05-02T16:43:25.051Z,40.51
2023-05-02T16:46:07.387Z,39.26
2023-05-02T16:48:35.352Z,40.71
2023-05-02T16:51:04.173Z,41.88
2023-05-02T16:53:32.099Z,40.84
2023-05-02T16:55:59.852Z,41.95
2023-05-02T16:58:30.307Z,43.45
2023-05-02T17:00:59.153Z,43.55
2023-05-02T17:03:26.791Z,43.71
2023-05-02T17:05:54.204Z,42.82
2023-05-02T17:08:22.329Z,44.60
2023-05-02T17:10:50.450Z,45.52
2023-05-02T17:13:18.009Z,45.23
2023-05-02T17:15:45.350Z,45.27
2023-05-02T17:18:12.762Z,45.60
2023-05-02T17:20:41.148Z,45.51
2023-05-02T17:23:09.107Z,46.88
2023-05-02T17:25:36.560Z,47.43
2023-05-02T17:28:03.872Z,47.86
2023-05-02T17:30:32.105Z,47.63
2023-05-02T17:33:00.543Z,48.21
2023-05-02T17:35:27.861Z,48.34
2023-05-02T17:37:55.509Z,49.76
2023-05-02T17:40:23.047Z,51.16
2023-05-02T17:42:50.315Z,50.48
2023-05-02T17:45:18.083Z,52.49
2023-05-02T17:47:45.365Z,52.66
2023-05-02T17:50:14.228Z,53.00
2023-05-02T17:52:41.649Z,53.58
2023-05-02T17:55:09.150Z,54.41
2023-05-02T17:57:36.439Z,54.29
2023-05-02T18:00:04.602Z,55.70
2023-05-02T18:02:33.898Z,56.92
2023-05-02T18:05:01.868Z,55.73
2023-05-02T18:07:30.203Z,54.60
2023-05-02T18:09:57.491Z,55.20
2023-05-02T18:12:24.841Z,55.36
2023-05-02T18:14:52.676Z,57.41
2023-05-02T18:17:23.126Z,57.56
2023-05-02T18:19:50.404Z,59.16
2023-05-02T18:22:20.116Z,58.30
2023-05-02T18:24:48.635Z,58.33
2023-05-02T18:27:19.078Z,59.65
2023-05-02T18:29:46.559Z,60.46
2023-05-02T18:32:14.861Z,59.36
2023-05-02T18:34:42.041Z,59.78
2023-05-02T18:37:09.917Z,61.19
2023-05-02T18:39:37.230Z,61.21
2023-05-02T18:42:04.630Z,60.22
2023-05-02T18:44:32.157Z,61.60
2023-05-02T18:46:59.470Z,60.43
2023-05-02T18:49:26.758Z,61.70
2023-05-02T18:51:54.519Z,61.56
2023-05-02T18:54:23.406Z,61.34
2023-05-02T18:56:50.827Z,59.93
2023-05-02T18:59:19.057Z,61.81
2023-05-02T19:01:48.433Z,62.80
2023-05-02T19:04:15.946Z,63.12
2023-05-02T19:06:43.251Z,62.41
2023-05-02T19:09:13.231Z,62.54
2023-05-02T19:11:41.453Z,61.22
2023-05-02T19:14:08.795Z,61.60
2023-05-02T19:16:38.184Z,61.58
2023-05-02T19:19:06.880Z,61.71
2023-05-02T19:21:34.779Z,63.20
2023-05-02T19:24:02.755Z,61.68
2023-05-02T19:26:30.487Z,62.13
2023-05-02T19:28:57.790Z,62.93
2023-05-02T19:31:25.217Z,63.78
2023-05-02T19:33:52.729Z,63.47
2023-05-02T19:36:20.384Z,63.31
2023-05-02T19:38:48.990Z,63.61
2023-05-02T19:41:17.156Z,63.86
2023-05-02T19:43:44.641Z,64.16
2023-05-02T19:46:11.947Z,64.66
2023-05-02T19:48:39.498Z,64.70
2023-05-02T19:51:06.890Z,64.07
2023-05-02T19:53:35.108Z,66.34
2023-05-02T19:56:02.937Z,64.72
2023-05-02T19:58:30.663Z,64.79
2023-05-02T20:00:57.973Z,64.76
2023-05-02T20:03:25.601Z,64.52
2023-05-02T20:05:53.127Z,65.39
2023-05-02T20:08:21.604Z,65.63
2023-05-02T20:10:50.744Z,66.77
2023-05-02T20:13:18.137Z,66.79
2023-05-02T20:15:45.513Z,68.83
2023-05-02T20:18:12.813Z,68.09
2023-05-02T20:20:40.066Z,67.53
2023-05-02T20:23:07.280Z,68.63
2023-05-02T20:25:34.521Z,69.51
2023-05-02T20:28:01.999Z,70.38
2023-05-02T20:30:29.532Z,70.18
2023-05-02T20:32:59.467Z,69.70
2023-05-02T20:35:31.591Z,70.79
2023-05-02T20:37:58.855Z,70.09
2023-05-02T20:40:27.657Z,70.70
2023-05-02T20:42:55.053Z,70.37
2023-05-02T20:45:24.397Z,72.63
2023-05-02T20:47:51.910Z,71.35
2023-05-02T20:50:19.353Z,71.78
2023-05-02T20:52:46.763Z,71.83
2023-05-02T20:55:13.999Z,70.83
2023-05-02T20:57:41.376Z,71.04
2023-05-02T21:00:11.361Z,71.90
2023-05-02T21:02:39.200Z,72.76
2023-05-02T21:05:06.571Z,72.65
2023-05-02T21:07:34.116Z,72.47
2023-05-02T21:10:01.664Z,72.06
2023-05-02T21:12:29.314Z,72.64
2023-05-02T21:14:56.585Z,72.41
2023-05-02T21:17:26.292Z,72.72
2023-05-02T21:19:55.899Z,72.70
2023-05-02T21:22:23.233Z,71.36
2023-05-02T21:24:50.915Z,71.48
2023-05-02T21:27:18.525Z,71.76
2023-05-02T21:29:45.879Z,71.70
2023-05-02T21:32:13.197Z,71.11
2023-05-02T21:34:40.826Z,71.54
2023-05-02T21:37:08.052Z,71.16
2023-05-02T21:39:35.589Z,71.44
2023-05-02T21:42:02.845Z,72.87
2023-05-02T21:44:30.156Z,72.23
2023-05-02T21:46:57.396Z,72.25
2023-05-02T21:49:24.639Z,72.89
2023-05-02T21:51:51.828Z,72.74
2023-05-02T21:54:19.051Z,73.63
2023-05-02T21:56:46.563Z,72.31
2023-05-02T21:59:14.139Z,72.35
2023-05-02T22:01:41.680Z,72.29
2023-05-02T22:04:08.991Z,72.56
2023-05-02T22:06:37.137Z,73.07
2023-05-02T22:09:05.073Z,72.14
2023-05-02T22:11:32.518Z,72.96
2023-05-02T22:13:59.708Z,74.02
2023-05-02T22:16:26.980Z,73.76
2023-05-02T22:18:54.262Z,72.22
2023-05-02T22:21:22.385Z,72.20
2023-05-02T22:23:49.714Z,72.32
2023-05-02T22:26:16.930Z,72.57
2023-05-02T22:28:44.147Z,72.10
2023-05-02T22:31:11.453Z,73.11
2023-05-02T22:33:38.711Z,72.96
2023-05-02T22:36:06.174Z,72.82
2023-05-02T22:38:33.453Z,74.32
2023-05-02T22:41:01.351Z,74.66
2023-05-02T22:43:28.672Z,72.58
2023-05-02T22:45:56.345Z,71.61
2023-05-02T22:48:23.747Z,72.42
2023-05-02T22:50:51.014Z,72.67
2023-05-02T22:53:21.625Z,72.91
2023-05-02T22:55:48.974Z,73.47
2023-05-02T22:58:16.313Z,72.85
2023-05-02T23:00:43.617Z,72.68
2023-05-02T23:03:11.563Z,71.37
2023-05-02T23:05:39.142Z,73.02
2023-05-02T23:08:06.723Z,72.42
2023-05-02T23:10:33.970Z,72.09
2023-05-02T23:13:01.226Z,72.87
2023-05-02T23:15:28.481Z,72.41
2023-05-02T23:17:55.847Z,74.15
2023-05-02T23:20:23.270Z,73.29
2023-05-02T23:22:51.284Z,71.38
2023-05-02T23:25:18.566Z,71.72
2023-05-02T23:27:46.064Z,72.56
2023-05-02T23:30:13.325Z,72.87
2023-05-02T23:32:41.166Z,71.48
2023-05-02T23:35:11.090Z,73.78
2023-05-02T23:37:39.405Z,73.34
2023-05-02T23:40:09.302Z,72.83
2023-05-02T23:42:40.119Z,73.20
2023-05-02T23:45:08.885Z,72.80
2023-05-02T23:47:36.722Z,70.63
2023-05-02T23:50:05.485Z,71.74
2023-05-02T23:52:33.532Z,70.72
2023-05-02T23:55:00.895Z,69.36
2023-05-02T23:57:31.230Z,72.73
2023-05-02T23:59:58.479Z,71.76
